sensor_id;sensor_type;location;lat;lon;timestamp;temperature;humidity
11067;DHT22;29763;50.904;5.530;2022-10-16T00:01:43;13.00;99.90
11067;DHT22;29763;50.904;5.530;2022-10-16T00:04:08;13.10;99.90
11067;DHT22;29763;50.904;5.530;2022-10-16T00:06:34;13.10;99.90
11067;DHT22;29763;50.904;5.530;2022-10-16T00:09:00;13.00;99.90
11067;DHT22;29763;50.904;5.530;2022-10-16T00:11:33;13.10;99.90
11067;DHT22;29763;50.904;5.530;2022-10-16T00:14:03;13.00;99.90
11067;DHT22;29763;50.904;5.530;2022-10-16T00:16:29;13.00;99.90
11067;DHT22;29763;50.904;5.530;2022-10-16T00:18:56;13.00;99.90
11067;DHT22;29763;50.904;5.530;2022-10-16T00:21:24;13.00;99.90
11067;DHT22;29763;50.904;5.530;2022-10-16T00:23:52;13.00;99.90
11067;DHT22;29763;50.904;5.530;2022-10-16T00:26:18;12.90;99.90
11067;DHT22;29763;50.904;5.530;2022-10-16T00:28:49;12.90;99.90
11067;DHT22;29763;50.904;5.530;2022-10-16T00:31:16;12.90;99.90
11067;DHT22;29763;50.904;5.530;2022-10-16T00:33:42;12.80;99.90
11067;DHT22;29763;50.904;5.530;2022-10-16T00:36:11;12.80;99.90
11067;DHT22;29763;50.904;5.530;2022-10-16T00:38:37;12.80;99.90
11067;DHT22;29763;50.904;5.530;2022-10-16T00:41:04;12.80;99.90
11067;DHT22;29763;50.904;5.530;2022-10-16T00:43:47;12.80;99.90
11067;DHT22;29763;50.904;5.530;2022-10-16T00:46:17;12.80;99.90
11067;DHT22;29763;50.904;5.530;2022-10-16T00:48:58;12.80;99.90
11067;DHT22;29763;50.904;5.530;2022-10-16T00:51:40;12.80;99.90
11067;DHT22;29763;50.904;5.530;2022-10-16T00:54:15;12.80;99.90
11067;DHT22;29763;50.904;5.530;2022-10-16T00:56:42;12.90;99.90
11067;DHT22;29763;50.904;5.530;2022-10-16T00:59:22;12.80;99.90
11067;DHT22;29763;50.904;5.530;2022-10-16T01:01:50;12.90;99.90
11067;DHT22;29763;50.904;5.530;2022-10-16T01:04:17;12.70;99.90
11067;DHT22;29763;50.904;5.530;2022-10-16T01:09:26;12.70;99.90
11067;DHT22;29763;50.904;5.530;2022-10-16T01:12:12;12.70;99.90
11067;DHT22;29763;50.904;5.530;2022-10-16T01:14:54;12.60;99.90
11067;DHT22;29763;50.904;5.530;2022-10-16T01:20:46;12.60;99.90
11067;DHT22;29763;50.904;5.530;2022-10-16T01:29:32;12.50;99.90
11067;DHT22;29763;50.904;5.530;2022-10-16T01:32:05;12.50;99.90
11067;DHT22;29763;50.904;5.530;2022-10-16T01:34:41;12.50;99.90
11067;DHT22;29763;50.904;5.530;2022-10-16T01:37:13;12.50;99.90
11067;DHT22;29763;50.904;5.530;2022-10-16T01:39:42;12.60;99.90
11067;DHT22;29763;50.904;5.530;2022-10-16T01:42:21;12.50;99.90
11067;DHT22;29763;50.904;5.530;2022-10-16T01:44:51;12.60;99.90
11067;DHT22;29763;50.904;5.530;2022-10-16T01:47:19;12.60;99.90
11067;DHT22;29763;50.904;5.530;2022-10-16T01:49:47;12.60;99.90
11067;DHT22;29763;50.904;5.530;2022-10-16T01:52:21;12.60;99.90
11067;DHT22;29763;50.904;5.530;2022-10-16T01:54:49;12.60;99.90
11067;DHT22;29763;50.904;5.530;2022-10-16T01:57:17;12.60;99.90
11067;DHT22;29763;50.904;5.530;2022-10-16T01:59:50;12.60;99.90
11067;DHT22;29763;50.904;5.530;2022-10-16T02:02:22;12.60;99.90
11067;DHT22;29763;50.904;5.530;2022-10-16T02:07:40;12.70;99.90
11067;DHT22;29763;50.904;5.530;2022-10-16T02:10:08;12.70;99.90
11067;DHT22;29763;50.904;5.530;2022-10-16T02:12:36;12.70;99.90
11067;DHT22;29763;50.904;5.530;2022-10-16T02:15:05;12.70;99.90
11067;DHT22;29763;50.904;5.530;2022-10-16T02:17:34;12.70;99.90
11067;DHT22;29763;50.904;5.530;2022-10-16T02:20:00;12.70;99.90
11067;DHT22;29763;50.904;5.530;2022-10-16T02:22:36;12.80;99.90
11067;DHT22;29763;50.904;5.530;2022-10-16T02:25:22;12.70;99.90
11067;DHT22;29763;50.904;5.530;2022-10-16T02:28:16;12.80;99.90
11067;DHT22;29763;50.904;5.530;2022-10-16T02:30:53;12.80;99.90
11067;DHT22;29763;50.904;5.530;2022-10-16T02:33:21;12.80;99.90
11067;DHT22;29763;50.904;5.530;2022-10-16T02:35:49;12.70;99.90
11067;DHT22;29763;50.904;5.530;2022-10-16T02:38:17;12.70;99.90
11067;DHT22;29763;50.904;5.530;2022-10-16T02:40:44;12.70;99.90
11067;DHT22;29763;50.904;5.530;2022-10-16T02:43:11;12.70;99.90
11067;DHT22;29763;50.904;5.530;2022-10-16T02:45:38;12.70;99.90
11067;DHT22;29763;50.904;5.530;2022-10-16T02:48:07;12.70;99.90
11067;DHT22;29763;50.904;5.530;2022-10-16T02:50:33;12.70;99.90
11067;DHT22;29763;50.904;5.530;2022-10-16T02:53:01;12.60;99.90
11067;DHT22;29763;50.904;5.530;2022-10-16T02:55:30;12.60;99.90
11067;DHT22;29763;50.904;5.530;2022-10-16T02:57:59;12.60;99.90
11067;DHT22;29763;50.904;5.530;2022-10-16T03:00:25;12.70;99.90
11067;DHT22;29763;50.904;5.530;2022-10-16T03:02:51;12.60;99.90
11067;DHT22;29763;50.904;5.530;2022-10-16T03:05:28;12.60;99.90
11067;DHT22;29763;50.904;5.530;2022-10-16T03:07:53;12.70;99.90
11067;DHT22;29763;50.904;5.530;2022-10-16T03:10:28;12.60;99.90
11067;DHT22;29763;50.904;5.530;2022-10-16T03:12:57;12.60;99.90
11067;DHT22;29763;50.904;5.530;2022-10-16T03:15:23;12.70;99.90
11067;DHT22;29763;50.904;5.530;2022-10-16T03:17:48;12.60;99.90
11067;DHT22;29763;50.904;5.530;2022-10-16T03:20:17;12.50;99.90
11067;DHT22;29763;50.904;5.530;2022-10-16T03:22:43;12.60;99.90
11067;DHT22;29763;50.904;5.530;2022-10-16T03:25:09;12.50;99.90
11067;DHT22;29763;50.904;5.530;2022-10-16T03:27:35;12.40;99.90
11067;DHT22;29763;50.904;5.530;2022-10-16T03:30:01;12.40;99.90
11067;DHT22;29763;50.904;5.530;2022-10-16T03:32:27;12.40;99.90
11067;DHT22;29763;50.904;5.530;2022-10-16T03:34:54;12.40;99.90
11067;DHT22;29763;50.904;5.530;2022-10-16T03:37:21;12.40;99.90
11067;DHT22;29763;50.904;5.530;2022-10-16T03:39:47;12.40;99.90
11067;DHT22;29763;50.904;5.530;2022-10-16T03:42:13;12.40;99.90
11067;DHT22;29763;50.904;5.530;2022-10-16T03:44:39;12.30;99.90
11067;DHT22;29763;50.904;5.530;2022-10-16T03:47:07;12.30;99.90
11067;DHT22;29763;50.904;5.530;2022-10-16T03:49:33;12.20;99.90
11067;DHT22;29763;50.904;5.530;2022-10-16T03:51:59;12.10;99.90
11067;DHT22;29763;50.904;5.530;2022-10-16T03:54:24;12.10;99.90
11067;DHT22;29763;50.904;5.530;2022-10-16T03:56:50;12.20;99.90
11067;DHT22;29763;50.904;5.530;2022-10-16T03:59:16;12.20;99.90
11067;DHT22;29763;50.904;5.530;2022-10-16T04:01:42;12.20;99.90
11067;DHT22;29763;50.904;5.530;2022-10-16T04:04:08;12.10;99.90
11067;DHT22;29763;50.904;5.530;2022-10-16T04:06:33;12.10;99.90
11067;DHT22;29763;50.904;5.530;2022-10-16T04:08:59;12.10;99.90
11067;DHT22;29763;50.904;5.530;2022-10-16T04:11:25;12.10;99.90
11067;DHT22;29763;50.904;5.530;2022-10-16T04:13:51;12.10;99.90
11067;DHT22;29763;50.904;5.530;2022-10-16T04:16:16;12.10;99.90
11067;DHT22;29763;50.904;5.530;2022-10-16T04:18:42;12.10;99.90
11067;DHT22;29763;50.904;5.530;2022-10-16T04:21:08;12.10;99.90
11067;DHT22;29763;50.904;5.530;2022-10-16T04:23:34;12.10;99.90
11067;DHT22;29763;50.904;5.530;2022-10-16T04:26:00;12.10;99.90
11067;DHT22;29763;50.904;5.530;2022-10-16T04:28:26;12.10;99.90
11067;DHT22;29763;50.904;5.530;2022-10-16T04:30:52;12.10;99.90
11067;DHT22;29763;50.904;5.530;2022-10-16T04:33:18;12.20;99.90
11067;DHT22;29763;50.904;5.530;2022-10-16T04:35:43;12.20;99.90
11067;DHT22;29763;50.904;5.530;2022-10-16T04:38:09;12.20;99.90
11067;DHT22;29763;50.904;5.530;2022-10-16T04:40:35;12.30;99.90
11067;DHT22;29763;50.904;5.530;2022-10-16T04:43:04;12.30;99.90
11067;DHT22;29763;50.904;5.530;2022-10-16T04:45:31;12.30;99.90
11067;DHT22;29763;50.904;5.530;2022-10-16T04:47:58;12.30;99.90
11067;DHT22;29763;50.904;5.530;2022-10-16T04:50:23;12.40;99.90
11067;DHT22;29763;50.904;5.530;2022-10-16T04:52:49;12.40;99.90
11067;DHT22;29763;50.904;5.530;2022-10-16T04:55:15;12.50;99.90
11067;DHT22;29763;50.904;5.530;2022-10-16T04:57:44;12.50;99.90
11067;DHT22;29763;50.904;5.530;2022-10-16T05:00:10;12.50;99.90
11067;DHT22;29763;50.904;5.530;2022-10-16T05:02:35;12.50;99.90
11067;DHT22;29763;50.904;5.530;2022-10-16T05:05:01;12.60;99.90
11067;DHT22;29763;50.904;5.530;2022-10-16T05:07:27;12.60;99.90
11067;DHT22;29763;50.904;5.530;2022-10-16T05:09:53;12.60;99.90
11067;DHT22;29763;50.904;5.530;2022-10-16T05:12:19;12.70;99.90
11067;DHT22;29763;50.904;5.530;2022-10-16T05:14:44;12.60;99.90
11067;DHT22;29763;50.904;5.530;2022-10-16T05:17:10;12.60;99.90
11067;DHT22;29763;50.904;5.530;2022-10-16T05:19:36;12.60;99.90
11067;DHT22;29763;50.904;5.530;2022-10-16T05:22:02;12.50;99.90
11067;DHT22;29763;50.904;5.530;2022-10-16T05:24:28;12.60;99.90
11067;DHT22;29763;50.904;5.530;2022-10-16T05:26:54;12.60;99.90
11067;DHT22;29763;50.904;5.530;2022-10-16T05:29:20;12.50;99.90
11067;DHT22;29763;50.904;5.530;2022-10-16T05:31:46;12.50;99.90
11067;DHT22;29763;50.904;5.530;2022-10-16T05:34:11;12.60;99.90
11067;DHT22;29763;50.904;5.530;2022-10-16T05:36:37;12.50;99.90
11067;DHT22;29763;50.904;5.530;2022-10-16T05:39:03;12.60;99.90
11067;DHT22;29763;50.904;5.530;2022-10-16T05:41:32;12.60;99.90
11067;DHT22;29763;50.904;5.530;2022-10-16T05:43:57;12.50;99.90
11067;DHT22;29763;50.904;5.530;2022-10-16T05:46:23;12.50;99.90
11067;DHT22;29763;50.904;5.530;2022-10-16T05:48:52;12.50;99.90
11067;DHT22;29763;50.904;5.530;2022-10-16T05:51:18;12.50;99.90
11067;DHT22;29763;50.904;5.530;2022-10-16T05:53:44;12.50;99.90
11067;DHT22;29763;50.904;5.530;2022-10-16T05:56:10;12.50;99.90
11067;DHT22;29763;50.904;5.530;2022-10-16T05:58:38;12.50;99.90
11067;DHT22;29763;50.904;5.530;2022-10-16T06:01:17;12.60;99.90
11067;DHT22;29763;50.904;5.530;2022-10-16T06:03:43;12.60;99.90
11067;DHT22;29763;50.904;5.530;2022-10-16T06:06:18;12.70;99.90
11067;DHT22;29763;50.904;5.530;2022-10-16T06:08:46;12.70;99.90
11067;DHT22;29763;50.904;5.530;2022-10-16T06:11:16;12.70;99.90
11067;DHT22;29763;50.904;5.530;2022-10-16T06:13:45;12.70;99.90
11067;DHT22;29763;50.904;5.530;2022-10-16T06:16:17;12.80;99.90
11067;DHT22;29763;50.904;5.530;2022-10-16T06:18:43;12.70;99.90
11067;DHT22;29763;50.904;5.530;2022-10-16T06:21:14;12.80;99.90
11067;DHT22;29763;50.904;5.530;2022-10-16T06:23:41;12.80;99.90
11067;DHT22;29763;50.904;5.530;2022-10-16T06:26:09;12.80;99.90
11067;DHT22;29763;50.904;5.530;2022-10-16T06:28:35;12.80;99.90
11067;DHT22;29763;50.904;5.530;2022-10-16T06:31:02;12.80;99.90
11067;DHT22;29763;50.904;5.530;2022-10-16T06:33:28;12.80;99.90
11067;DHT22;29763;50.904;5.530;2022-10-16T06:35:59;12.70;99.90
11067;DHT22;29763;50.904;5.530;2022-10-16T06:38:25;12.70;99.90
11067;DHT22;29763;50.904;5.530;2022-10-16T06:40:52;12.70;99.90
11067;DHT22;29763;50.904;5.530;2022-10-16T06:43:18;12.70;99.90
11067;DHT22;29763;50.904;5.530;2022-10-16T06:45:53;12.70;99.90
11067;DHT22;29763;50.904;5.530;2022-10-16T06:48:19;12.70;99.90
11067;DHT22;29763;50.904;5.530;2022-10-16T06:53:34;12.60;99.90
11067;DHT22;29763;50.904;5.530;2022-10-16T06:56:17;12.50;99.90
11067;DHT22;29763;50.904;5.530;2022-10-16T06:58:43;12.60;99.90
11067;DHT22;29763;50.904;5.530;2022-10-16T07:01:10;12.50;99.90
11067;DHT22;29763;50.904;5.530;2022-10-16T07:03:43;12.50;99.90
11067;DHT22;29763;50.904;5.530;2022-10-16T07:06:11;12.50;99.90
11067;DHT22;29763;50.904;5.530;2022-10-16T07:08:39;12.60;99.90
11067;DHT22;29763;50.904;5.530;2022-10-16T07:11:16;12.60;99.90
11067;DHT22;29763;50.904;5.530;2022-10-16T07:13:46;12.70;99.90
11067;DHT22;29763;50.904;5.530;2022-10-16T07:16:14;12.70;99.90
11067;DHT22;29763;50.904;5.530;2022-10-16T07:18:42;12.90;99.90
11067;DHT22;29763;50.904;5.530;2022-10-16T07:21:34;12.90;99.90
11067;DHT22;29763;50.904;5.530;2022-10-16T07:24:04;13.00;99.90
11067;DHT22;29763;50.904;5.530;2022-10-16T07:26:32;13.00;99.90
11067;DHT22;29763;50.904;5.530;2022-10-16T07:29:16;13.10;99.90
11067;DHT22;29763;50.904;5.530;2022-10-16T07:31:42;13.20;99.90
11067;DHT22;29763;50.904;5.530;2022-10-16T07:34:08;13.30;99.90
11067;DHT22;29763;50.904;5.530;2022-10-16T07:36:37;13.40;99.90
11067;DHT22;29763;50.904;5.530;2022-10-16T07:39:03;13.40;99.90
11067;DHT22;29763;50.904;5.530;2022-10-16T07:41:32;13.50;99.90
11067;DHT22;29763;50.904;5.530;2022-10-16T07:44:05;13.70;99.90
11067;DHT22;29763;50.904;5.530;2022-10-16T07:46:34;14.00;99.90
11067;DHT22;29763;50.904;5.530;2022-10-16T07:49:02;14.20;99.90
11067;DHT22;29763;50.904;5.530;2022-10-16T07:51:37;14.50;99.90
11067;DHT22;29763;50.904;5.530;2022-10-16T07:54:29;14.90;99.90
11067;DHT22;29763;50.904;5.530;2022-10-16T07:57:07;15.20;99.90
11067;DHT22;29763;50.904;5.530;2022-10-16T07:59:45;15.40;99.90
11067;DHT22;29763;50.904;5.530;2022-10-16T08:02:12;15.60;99.90
11067;DHT22;29763;50.904;5.530;2022-10-16T08:04:38;15.80;99.90
11067;DHT22;29763;50.904;5.530;2022-10-16T08:07:06;16.10;99.90
11067;DHT22;29763;50.904;5.530;2022-10-16T08:09:34;16.20;99.90
11067;DHT22;29763;50.904;5.530;2022-10-16T08:12:00;16.30;99.90
11067;DHT22;29763;50.904;5.530;2022-10-16T08:14:39;16.20;99.90
11067;DHT22;29763;50.904;5.530;2022-10-16T08:17:05;16.10;99.90
11067;DHT22;29763;50.904;5.530;2022-10-16T08:19:31;16.00;99.90
11067;DHT22;29763;50.904;5.530;2022-10-16T08:22:00;15.80;99.90
11067;DHT22;29763;50.904;5.530;2022-10-16T08:24:49;15.70;99.90
11067;DHT22;29763;50.904;5.530;2022-10-16T08:27:35;15.60;99.90
11067;DHT22;29763;50.904;5.530;2022-10-16T08:30:00;15.50;99.90
11067;DHT22;29763;50.904;5.530;2022-10-16T08:32:26;15.50;99.90
11067;DHT22;29763;50.904;5.530;2022-10-16T08:34:55;15.40;99.90
11067;DHT22;29763;50.904;5.530;2022-10-16T08:37:23;15.50;99.90
11067;DHT22;29763;50.904;5.530;2022-10-16T08:39:52;15.40;99.90
11067;DHT22;29763;50.904;5.530;2022-10-16T08:42:45;15.50;99.90
11067;DHT22;29763;50.904;5.530;2022-10-16T08:48:50;15.60;99.90
11067;DHT22;29763;50.904;5.530;2022-10-16T08:51:33;15.60;99.90
11067;DHT22;29763;50.904;5.530;2022-10-16T08:54:26;15.70;99.90
11067;DHT22;29763;50.904;5.530;2022-10-16T08:57:11;15.70;99.90
11067;DHT22;29763;50.904;5.530;2022-10-16T08:59:40;15.80;99.90
11067;DHT22;29763;50.904;5.530;2022-10-16T09:02:45;15.80;99.90
11067;DHT22;29763;50.904;5.530;2022-10-16T09:09:20;16.40;99.90
11067;DHT22;29763;50.904;5.530;2022-10-16T09:11:57;16.80;99.90
11067;DHT22;29763;50.904;5.530;2022-10-16T09:20:38;17.10;99.90
11067;DHT22;29763;50.904;5.530;2022-10-16T09:23:13;17.20;99.90
11067;DHT22;29763;50.904;5.530;2022-10-16T09:25:48;17.20;99.90
11067;DHT22;29763;50.904;5.530;2022-10-16T09:28:16;17.50;99.90
11067;DHT22;29763;50.904;5.530;2022-10-16T09:30:42;17.80;99.90
11067;DHT22;29763;50.904;5.530;2022-10-16T09:33:19;18.10;99.90
11067;DHT22;29763;50.904;5.530;2022-10-16T09:35:53;18.30;99.90
11067;DHT22;29763;50.904;5.530;2022-10-16T09:38:29;18.60;99.90
11067;DHT22;29763;50.904;5.530;2022-10-16T09:41:02;18.90;99.90
11067;DHT22;29763;50.904;5.530;2022-10-16T09:46:36;19.40;99.90
11067;DHT22;29763;50.904;5.530;2022-10-16T09:49:29;19.60;99.90
11067;DHT22;29763;50.904;5.530;2022-10-16T09:52:09;19.80;99.90
11067;DHT22;29763;50.904;5.530;2022-10-16T09:54:52;20.20;99.90
11067;DHT22;29763;50.904;5.530;2022-10-16T09:57:24;20.50;99.90
11067;DHT22;29763;50.904;5.530;2022-10-16T09:59:55;20.70;99.90
11067;DHT22;29763;50.904;5.530;2022-10-16T10:02:34;21.00;99.90
11067;DHT22;29763;50.904;5.530;2022-10-16T10:05:01;21.30;99.90
11067;DHT22;29763;50.904;5.530;2022-10-16T10:07:35;21.60;99.90
11067;DHT22;29763;50.904;5.530;2022-10-16T10:10:04;21.60;99.90
11067;DHT22;29763;50.904;5.530;2022-10-16T10:12:32;21.90;99.90
11067;DHT22;29763;50.904;5.530;2022-10-16T10:15:10;22.10;99.90
11067;DHT22;29763;50.904;5.530;2022-10-16T10:17:46;22.10;99.90
11067;DHT22;29763;50.904;5.530;2022-10-16T10:20:34;22.00;99.90
11067;DHT22;29763;50.904;5.530;2022-10-16T10:23:01;22.20;99.90
11067;DHT22;29763;50.904;5.530;2022-10-16T10:31:25;22.60;99.90
11067;DHT22;29763;50.904;5.530;2022-10-16T10:34:04;22.90;99.90
11067;DHT22;29763;50.904;5.530;2022-10-16T10:36:38;23.00;99.90
11067;DHT22;29763;50.904;5.530;2022-10-16T10:39:17;22.90;99.90
11067;DHT22;29763;50.904;5.530;2022-10-16T10:47:36;21.70;99.90
11067;DHT22;29763;50.904;5.530;2022-10-16T10:50:20;21.90;99.90
11067;DHT22;29763;50.904;5.530;2022-10-16T10:55:48;21.80;99.90
11067;DHT22;29763;50.904;5.530;2022-10-16T11:07:25;21.60;99.90
11067;DHT22;29763;50.904;5.530;2022-10-16T11:10:03;21.30;99.90
11067;DHT22;29763;50.904;5.530;2022-10-16T11:12:43;21.80;99.90
11067;DHT22;29763;50.904;5.530;2022-10-16T11:15:29;22.60;99.90
11067;DHT22;29763;50.904;5.530;2022-10-16T11:18:21;23.00;99.90
11067;DHT22;29763;50.904;5.530;2022-10-16T11:20:54;22.70;99.90
11067;DHT22;29763;50.904;5.530;2022-10-16T11:23:48;22.10;99.90
11067;DHT22;29763;50.904;5.530;2022-10-16T11:26:16;21.70;99.90
11067;DHT22;29763;50.904;5.530;2022-10-16T11:28:49;21.30;99.90
11067;DHT22;29763;50.904;5.530;2022-10-16T11:31:39;21.00;99.90
11067;DHT22;29763;50.904;5.530;2022-10-16T11:37:17;21.60;99.90
11067;DHT22;29763;50.904;5.530;2022-10-16T11:39:44;21.70;99.90
11067;DHT22;29763;50.904;5.530;2022-10-16T11:42:21;22.00;99.90
11067;DHT22;29763;50.904;5.530;2022-10-16T11:44:58;22.50;99.90
11067;DHT22;29763;50.904;5.530;2022-10-16T11:47:45;23.20;99.90
11067;DHT22;29763;50.904;5.530;2022-10-16T11:50:29;23.40;99.90
11067;DHT22;29763;50.904;5.530;2022-10-16T11:55:43;22.70;99.90
11067;DHT22;29763;50.904;5.530;2022-10-16T12:06:40;22.30;99.90
11067;DHT22;29763;50.904;5.530;2022-10-16T12:09:25;22.50;99.90
11067;DHT22;29763;50.904;5.530;2022-10-16T12:11:52;22.70;99.90
11067;DHT22;29763;50.904;5.530;2022-10-16T12:14:36;22.50;99.90
11067;DHT22;29763;50.904;5.530;2022-10-16T12:17:22;22.30;99.90
11067;DHT22;29763;50.904;5.530;2022-10-16T12:20:33;22.30;99.90
11067;DHT22;29763;50.904;5.530;2022-10-16T12:23:04;22.50;99.90
11067;DHT22;29763;50.904;5.530;2022-10-16T12:25:35;22.50;99.90
11067;DHT22;29763;50.904;5.530;2022-10-16T12:28:07;22.30;99.90
11067;DHT22;29763;50.904;5.530;2022-10-16T12:30:43;22.50;99.90
11067;DHT22;29763;50.904;5.530;2022-10-16T12:33:25;22.90;99.90
11067;DHT22;29763;50.904;5.530;2022-10-16T12:35:51;23.50;99.90
11067;DHT22;29763;50.904;5.530;2022-10-16T12:41:00;23.90;99.90
11067;DHT22;29763;50.904;5.530;2022-10-16T12:46:20;24.50;99.90
11067;DHT22;29763;50.904;5.530;2022-10-16T12:48:47;24.80;99.90
11067;DHT22;29763;50.904;5.530;2022-10-16T13:00:00;23.50;99.90
11067;DHT22;29763;50.904;5.530;2022-10-16T13:02:35;23.20;99.90
11067;DHT22;29763;50.904;5.530;2022-10-16T13:05:30;23.20;99.90
11067;DHT22;29763;50.904;5.530;2022-10-16T13:30:02;21.30;99.90
11067;DHT22;29763;50.904;5.530;2022-10-16T13:32:36;21.30;99.90
11067;DHT22;29763;50.904;5.530;2022-10-16T13:35:02;21.20;99.90
11067;DHT22;29763;50.904;5.530;2022-10-16T13:37:29;21.40;99.90
11067;DHT22;29763;50.904;5.530;2022-10-16T13:40:21;21.40;99.90
11067;DHT22;29763;50.904;5.530;2022-10-16T13:42:51;21.50;99.90
11067;DHT22;29763;50.904;5.530;2022-10-16T13:45:24;21.40;99.90
11067;DHT22;29763;50.904;5.530;2022-10-16T13:48:22;21.30;99.90
11067;DHT22;29763;50.904;5.530;2022-10-16T13:50:59;21.20;99.90
11067;DHT22;29763;50.904;5.530;2022-10-16T13:53:24;21.20;99.90
11067;DHT22;29763;50.904;5.530;2022-10-16T13:55:50;21.00;99.90
11067;DHT22;29763;50.904;5.530;2022-10-16T13:58:16;20.90;99.90
11067;DHT22;29763;50.904;5.530;2022-10-16T14:01:16;20.60;99.90
11067;DHT22;29763;50.904;5.530;2022-10-16T14:03:42;20.60;99.90
11067;DHT22;29763;50.904;5.530;2022-10-16T14:06:17;20.50;99.90
11067;DHT22;29763;50.904;5.530;2022-10-16T14:09:06;20.60;99.90
11067;DHT22;29763;50.904;5.530;2022-10-16T14:11:33;20.50;99.90
11067;DHT22;29763;50.904;5.530;2022-10-16T14:14:02;20.50;99.90
11067;DHT22;29763;50.904;5.530;2022-10-16T14:16:30;20.50;99.90
11067;DHT22;29763;50.904;5.530;2022-10-16T14:19:04;20.50;99.90
11067;DHT22;29763;50.904;5.530;2022-10-16T14:21:33;20.50;99.90
11067;DHT22;29763;50.904;5.530;2022-10-16T14:23:59;20.30;99.90
11067;DHT22;29763;50.904;5.530;2022-10-16T14:26:28;20.00;99.90
11067;DHT22;29763;50.904;5.530;2022-10-16T14:29:29;19.70;99.90
11067;DHT22;29763;50.904;5.530;2022-10-16T14:32:03;19.30;99.90
11067;DHT22;29763;50.904;5.530;2022-10-16T14:34:38;19.20;99.90
11067;DHT22;29763;50.904;5.530;2022-10-16T14:37:27;19.10;99.90
11067;DHT22;29763;50.904;5.530;2022-10-16T14:39:54;18.90;99.90
11067;DHT22;29763;50.904;5.530;2022-10-16T14:42:22;18.70;99.90
11067;DHT22;29763;50.904;5.530;2022-10-16T14:44:52;18.70;99.90
11067;DHT22;29763;50.904;5.530;2022-10-16T14:47:21;18.70;99.90
11067;DHT22;29763;50.904;5.530;2022-10-16T14:49:51;18.70;99.90
11067;DHT22;29763;50.904;5.530;2022-10-16T14:52:17;18.80;99.90
11067;DHT22;29763;50.904;5.530;2022-10-16T14:54:42;18.80;99.90
11067;DHT22;29763;50.904;5.530;2022-10-16T14:57:19;18.80;99.90
11067;DHT22;29763;50.904;5.530;2022-10-16T14:59:46;18.80;99.90
11067;DHT22;29763;50.904;5.530;2022-10-16T15:04:51;18.80;99.90
11067;DHT22;29763;50.904;5.530;2022-10-16T15:07:16;18.70;99.90
11067;DHT22;29763;50.904;5.530;2022-10-16T15:09:42;18.60;99.90
11067;DHT22;29763;50.904;5.530;2022-10-16T15:12:08;18.50;99.90
11067;DHT22;29763;50.904;5.530;2022-10-16T15:14:34;18.50;99.90
11067;DHT22;29763;50.904;5.530;2022-10-16T15:16:59;18.40;99.90
11067;DHT22;29763;50.904;5.530;2022-10-16T15:19:25;18.40;99.90
11067;DHT22;29763;50.904;5.530;2022-10-16T15:21:51;18.40;99.90
11067;DHT22;29763;50.904;5.530;2022-10-16T15:24:18;18.30;99.90
11067;DHT22;29763;50.904;5.530;2022-10-16T15:26:43;18.30;99.90
11067;DHT22;29763;50.904;5.530;2022-10-16T15:29:14;18.10;99.90
11067;DHT22;29763;50.904;5.530;2022-10-16T15:31:40;18.10;99.90
11067;DHT22;29763;50.904;5.530;2022-10-16T15:34:10;18.00;99.90
11067;DHT22;29763;50.904;5.530;2022-10-16T15:36:37;17.90;99.90
11067;DHT22;29763;50.904;5.530;2022-10-16T15:39:05;17.80;99.90
11067;DHT22;29763;50.904;5.530;2022-10-16T15:41:39;17.80;99.90
11067;DHT22;29763;50.904;5.530;2022-10-16T15:44:05;17.80;99.90
11067;DHT22;29763;50.904;5.530;2022-10-16T15:46:31;17.70;99.90
11067;DHT22;29763;50.904;5.530;2022-10-16T15:48:59;17.80;99.90
11067;DHT22;29763;50.904;5.530;2022-10-16T15:51:28;17.70;99.90
11067;DHT22;29763;50.904;5.530;2022-10-16T15:53:59;17.70;99.90
11067;DHT22;29763;50.904;5.530;2022-10-16T15:56:27;17.70;99.90
11067;DHT22;29763;50.904;5.530;2022-10-16T15:58:54;17.60;99.90
11067;DHT22;29763;50.904;5.530;2022-10-16T16:01:20;17.60;99.90
11067;DHT22;29763;50.904;5.530;2022-10-16T16:03:46;17.40;99.90
11067;DHT22;29763;50.904;5.530;2022-10-16T16:06:25;17.40;99.90
11067;DHT22;29763;50.904;5.530;2022-10-16T16:09:01;17.30;99.90
11067;DHT22;29763;50.904;5.530;2022-10-16T16:11:30;17.20;99.90
11067;DHT22;29763;50.904;5.530;2022-10-16T16:13:57;17.20;99.90
11067;DHT22;29763;50.904;5.530;2022-10-16T16:16:26;17.10;99.90
11067;DHT22;29763;50.904;5.530;2022-10-16T16:18:52;17.00;99.90
11067;DHT22;29763;50.904;5.530;2022-10-16T16:21:18;16.90;99.90
11067;DHT22;29763;50.904;5.530;2022-10-16T16:23:44;16.90;99.90
11067;DHT22;29763;50.904;5.530;2022-10-16T16:26:23;16.80;99.90
11067;DHT22;29763;50.904;5.530;2022-10-16T16:28:54;16.70;99.90
11067;DHT22;29763;50.904;5.530;2022-10-16T16:31:24;16.70;99.90
11067;DHT22;29763;50.904;5.530;2022-10-16T16:33:51;16.70;99.90
11067;DHT22;29763;50.904;5.530;2022-10-16T16:36:17;16.60;99.90
11067;DHT22;29763;50.904;5.530;2022-10-16T16:38:45;16.50;99.90
11067;DHT22;29763;50.904;5.530;2022-10-16T16:41:22;16.50;99.90
11067;DHT22;29763;50.904;5.530;2022-10-16T16:43:49;16.40;99.90
11067;DHT22;29763;50.904;5.530;2022-10-16T16:46:17;16.40;99.90
11067;DHT22;29763;50.904;5.530;2022-10-16T16:48:44;16.30;99.90
11067;DHT22;29763;50.904;5.530;2022-10-16T16:51:13;16.40;99.90
11067;DHT22;29763;50.904;5.530;2022-10-16T16:53:53;16.30;99.90
11067;DHT22;29763;50.904;5.530;2022-10-16T16:56:23;16.30;99.90
11067;DHT22;29763;50.904;5.530;2022-10-16T16:58:51;16.20;99.90
11067;DHT22;29763;50.904;5.530;2022-10-16T17:01:18;16.10;99.90
11067;DHT22;29763;50.904;5.530;2022-10-16T17:03:45;16.10;99.90
11067;DHT22;29763;50.904;5.530;2022-10-16T17:06:12;16.00;99.90
11067;DHT22;29763;50.904;5.530;2022-10-16T17:08:38;15.90;99.90
11067;DHT22;29763;50.904;5.530;2022-10-16T17:11:12;15.90;99.90
11067;DHT22;29763;50.904;5.530;2022-10-16T17:13:41;15.90;99.90
11067;DHT22;29763;50.904;5.530;2022-10-16T17:16:08;15.90;99.90
11067;DHT22;29763;50.904;5.530;2022-10-16T17:18:34;15.90;99.90
11067;DHT22;29763;50.904;5.530;2022-10-16T17:21:09;15.90;99.90
11067;DHT22;29763;50.904;5.530;2022-10-16T17:23:36;15.90;99.90
11067;DHT22;29763;50.904;5.530;2022-10-16T17:26:14;16.00;99.90
11067;DHT22;29763;50.904;5.530;2022-10-16T17:28:42;15.90;99.90
11067;DHT22;29763;50.904;5.530;2022-10-16T17:31:14;15.90;99.90
11067;DHT22;29763;50.904;5.530;2022-10-16T17:33:43;15.90;99.90
11067;DHT22;29763;50.904;5.530;2022-10-16T17:36:12;15.90;99.90
11067;DHT22;29763;50.904;5.530;2022-10-16T17:38:43;15.80;99.90
11067;DHT22;29763;50.904;5.530;2022-10-16T17:41:12;15.80;99.90
11067;DHT22;29763;50.904;5.530;2022-10-16T17:43:39;15.80;99.90
11067;DHT22;29763;50.904;5.530;2022-10-16T17:46:06;15.70;99.90